This is the latest recevied weather packets stored in our database for station/object IZ1BLA-10. If no packets are shown the sender has not sent any weather packets the latest 10 day(s).
| Time | Temp. | Humidity | Pressure | Rain* | Wind** | Luminosity | Snow |
|---|---|---|---|---|---|---|---|
| 1777860551 | 11.67° C | 75% | 1017.6 hPa | - | - | - | - |
| 1777859952 | 12.22° C | 71% | 1017.4 hPa | - | - | - | - |
| 1777859352 | 11.67° C | 72% | 1017.5 hPa | - | - | - | - |
| 1777858751 | 12.22° C | 69% | 1017.3 hPa | - | - | - | - |
| 1777858151 | 12.78° C | 69% | 1017.2 hPa | - | - | - | - |
| 1777857552 | 13.89° C | 63% | 1016.8 hPa | - | - | - | - |
| 1777856951 | 12.78° C | 70% | 1017.4 hPa | - | - | - | - |
| 1777856352 | 12.78° C | 70% | 1017.6 hPa | - | - | - | - |
| 1777855752 | 12.22° C | 69% | 1017.7 hPa | - | - | - | - |
| 1777855151 | 12.78° C | 67% | 1017.3 hPa | - | - | - | - |
| 1777854551 | 12.22° C | 68% | 1017.8 hPa | - | - | - | - |
| 1777853952 | 12.78° C | 64% | 1017.6 hPa | - | - | - | - |
| 1777853352 | 12.22° C | 70% | 1018 hPa | - | - | - | - |
| 1777852751 | 12.22° C | 71% | 1017.8 hPa | - | - | - | - |
| 1777852151 | 12.78° C | 70% | 1017.9 hPa | - | - | - | - |
| 1777851552 | 12.22° C | 73% | 1018 hPa | - | - | - | - |
| 1777850951 | 12.78° C | 72% | 1018 hPa | - | - | - | - |
| 1777850352 | 12.78° C | 71% | 1018 hPa | - | - | - | - |
| 1777849751 | 12.78° C | 70% | 1018 hPa | - | - | - | - |
| 1777849152 | 12.78° C | 71% | 1018.1 hPa | - | - | - | - |
| 1777848552 | 12.78° C | 69% | 1018.1 hPa | - | - | - | - |
| 1777847951 | 14.44° C | 63% | 1017.7 hPa | - | - | - | - |
| 1777847351 | 15° C | 63% | 1017.6 hPa | - | - | - | - |
| 1777846751 | 13.89° C | 69% | 1017.9 hPa | - | - | - | - |
| 1777846151 | 12.78° C | 72% | 1018 hPa | - | - | - | - |
* Rain since midnight (hover to see other rain measurements)
** Current wind speed in m/s (hover to see current wind gust speed)